Time;durP1;ratioP1;P1;durP2;ratioP2;P2;SDS_P1;SDS_P2;PMS_P1;PMS_P2;Temp;Humidity;BMP_temperature;BMP_pressure;BME280_temperature;BME280_humidity;BME280_pressure;Samples;Min_cycle;Max_cycle;Signal;HPM_P1;HPM_P2
2023/10/27 10:03:40;;;;;;;14.40;6.90;;;;;;;13.79;80.38;96867.92;102203;1294;636593;-70
2023/10/27 10:06:12;;;;;;;14.20;6.90;;;;;;;13.77;80.29;96868.89;104597;1271;94252;-71
2023/10/27 10:09:00;;;;;;;15.80;7.30;;;;;;;13.75;80.34;96865.83;104627;1268;95664;-71
2023/10/27 10:11:55;;;;;;;16.50;7.60;;;;;;;13.74;80.39;96862.05;104687;1266;107202;-72
2023/10/27 10:14:39;;;;;;;13.90;6.90;;;;;;;13.73;80.43;96862.02;104555;1272;95565;-72
2023/10/27 10:17:08;;;;;;;13.30;6.80;;;;;;;13.72;80.51;96855.15;104694;1262;182759;-72
2023/10/27 10:19:50;;;;;;;16.70;7.50;;;;;;;13.71;80.52;96859.52;104984;1263;95087;-71
2023/10/27 10:22:37;;;;;;;16.00;6.80;;;;;;;13.71;80.53;96856.73;104616;1259;94318;-73
2023/10/27 10:25:14;;;;;;;16.20;7.30;;;;;;;13.68;80.48;96854.67;104969;1263;105267;-72
2023/10/27 10:28:07;;;;;;;16.60;6.80;;;;;;;13.67;80.53;96851.98;104832;1264;95287;-70
2023/10/27 10:30:43;;;;;;;13.00;6.70;;;;;;;13.65;80.55;96845.86;105016;1265;108301;-71
2023/10/27 10:33:14;;;;;;;17.40;7.70;;;;;;;13.64;80.64;96840.43;105180;1258;95314;-71
2023/10/27 10:35:44;;;;;;;16.40;7.60;;;;;;;13.63;80.59;96838.64;105567;1256;95310;-70
2023/10/27 10:38:35;;;;;;;17.30;8.10;;;;;;;13.62;80.57;96831.98;105437;1256;108524;-70
2023/10/27 10:41:03;;;;;;;20.70;8.90;;;;;;;13.61;80.58;96829.65;105566;1256;95365;-70
2023/10/27 10:43:39;;;;;;;19.60;8.20;;;;;;;13.60;80.54;96821.91;105220;1256;107762;-71
2023/10/27 10:46:11;;;;;;;19.70;8.70;;;;;;;13.59;80.62;96818.70;105199;1259;95231;-70
2023/10/27 10:48:42;;;;;;;20.00;9.10;;;;;;;13.58;80.60;96817.33;105427;1256;96095;-71
2023/10/27 10:51:47;;;;;;;19.70;8.80;;;;;;;13.57;80.59;96811.81;105582;1256;110325;-72
2023/10/27 10:54:13;;;;;;;20.20;9.20;;;;;;;13.55;80.67;96807.34;105206;1257;95634;-70
2023/10/27 10:56:42;;;;;;;19.00;8.80;;;;;;;13.54;80.63;96805.86;105233;1264;107182;-70
2023/10/27 10:59:19;;;;;;;19.00;8.50;;;;;;;13.54;80.65;96800.39;105541;1256;95329;-72
2023/10/27 11:01:54;;;;;;;15.60;8.20;;;;;;;13.54;80.76;96797.18;105279;1257;95912;-75
2023/10/27 11:04:29;;;;;;;18.00;8.00;;;;;;;13.52;80.64;96792.52;105351;1257;108732;-71
2023/10/27 11:07:09;;;;;;;15.80;8.20;;;;;;;13.51;80.74;96785.98;105292;1256;95355;-70
2023/10/27 11:09:37;;;;;;;16.40;7.70;;;;;;;13.49;80.75;96778.17;105418;1256;107340;-71
2023/10/27 11:12:05;;;;;;;16.50;8.00;;;;;;;13.47;80.71;96768.08;105277;1251;96171;-73
2023/10/27 11:14:40;;;;;;;18.40;8.10;;;;;;;13.46;80.69;96765.55;105404;1256;95225;-71
2023/10/27 11:17:11;;;;;;;18.10;8.40;;;;;;;13.46;80.75;96758.41;105365;1254;108630;-73
2023/10/27 11:19:55;;;;;;;20.00;8.60;;;;;;;13.45;80.70;96754.09;105340;1258;95320;-70
2023/10/27 11:22:24;;;;;;;17.10;7.20;;;;;;;13.43;80.73;96750.99;105237;1256;107684;-71
2023/10/27 11:24:53;;;;;;;16.10;7.20;;;;;;;13.39;80.78;96744.59;105590;1258;96196;-72
2023/10/27 11:27:26;;;;;;;16.70;7.10;;;;;;;13.38;80.74;96742.03;105363;1256;95180;-71
2023/10/27 11:30:00;;;;;;;16.80;8.30;;;;;;;13.35;80.75;96736.33;105280;1253;108531;-72
2023/10/27 11:32:29;;;;;;;21.00;8.50;;;;;;;13.34;80.72;96727.11;105420;1256;95251;-75
2023/10/27 11:34:58;;;;;;;16.80;7.70;;;;;;;13.31;80.67;96725.34;105121;1261;106304;-71
2023/10/27 11:37:26;;;;;;;18.40;8.00;;;;;;;13.29;80.78;96719.33;105582;1256;95285;-71
2023/10/27 11:39:57;;;;;;;18.30;7.70;;;;;;;13.27;80.77;96711.70;105427;1256;95217;-72
2023/10/27 11:42:25;;;;;;;18.90;8.20;;;;;;;13.24;80.78;96705.64;105165;1254;107437;-72
2023/10/27 11:44:53;;;;;;;20.00;8.30;;;;;;;13.22;80.77;96700.93;105419;1259;95217;-70
2023/10/27 11:47:21;;;;;;;21.00;9.20;;;;;;;13.20;80.81;96694.63;105536;1256;106484;-71
2023/10/27 11:49:49;;;;;;;17.60;8.00;;;;;;;13.20;80.87;96691.63;105373;1258;95232;-72
2023/10/27 11:52:19;;;;;;;20.40;8.40;;;;;;;13.17;80.82;96688.15;105442;1256;95371;-75
2023/10/27 11:54:47;;;;;;;19.10;7.90;;;;;;;13.14;80.77;96684.20;105672;1256;109063;-72
2023/10/27 11:57:15;;;;;;;16.90;7.30;;;;;;;13.13;80.91;96677.48;105645;1256;95668;-73
2023/10/27 11:59:43;;;;;;;16.40;7.40;;;;;;;13.11;80.85;96676.61;105291;1256;106786;-71
2023/10/27 12:02:13;;;;;;;17.20;7.60;;;;;;;13.10;80.88;96674.20;105678;1256;95266;-72
2023/10/27 12:04:41;;;;;;;17.80;7.40;;;;;;;13.07;80.79;96670.80;105361;1256;95334;-71
2023/10/27 12:07:11;;;;;;;16.60;7.70;;;;;;;13.07;80.76;96665.85;105510;1259;107475;-71
2023/10/27 12:09:39;;;;;;;16.50;7.60;;;;;;;13.06;80.93;96656.02;105474;1255;96817;-71
2023/10/27 12:12:08;;;;;;;16.80;8.00;;;;;;;13.04;80.93;96642.90;105435;1256;106305;-72
2023/10/27 12:14:37;;;;;;;19.60;8.50;;;;;;;13.03;80.88;96641.00;105461;1255;95354;-71
2023/10/27 12:17:06;;;;;;;17.50;8.50;;;;;;;13.01;80.90;96634.25;105638;1255;96067;-74
2023/10/27 12:19:34;;;;;;;17.20;8.20;;;;;;;12.98;80.87;96629.13;105414;1256;108763;-73
2023/10/27 12:22:02;;;;;;;18.90;8.40;;;;;;;12.95;80.91;96625.18;105462;1256;95456;-71
2023/10/27 12:24:33;;;;;;;17.90;8.20;;;;;;;12.93;80.98;96623.77;105414;1256;107347;-72
2023/10/27 12:27:02;;;;;;;19.00;9.00;;;;;;;12.91;81.05;96620.27;105406;1256;95256;-71
2023/10/27 12:29:30;;;;;;;19.80;9.30;;;;;;;12.91;81.04;96616.55;105210;1256;95281;-72
2023/10/27 12:31:59;;;;;;;17.50;8.80;;;;;;;12.92;80.98;96606.17;105376;1259;108597;-72
2023/10/27 12:34:27;;;;;;;19.70;9.00;;;;;;;12.91;80.93;96595.63;105398;1266;97269;-71
2023/10/27 12:36:56;;;;;;;18.20;8.20;;;;;;;12.90;81.06;96584.82;105420;1256;106394;-73
2023/10/27 12:39:24;;;;;;;17.50;8.80;;;;;;;12.90;81.08;96591.27;105458;1256;95251;-72
2023/10/27 12:41:52;;;;;;;15.40;8.40;;;;;;;12.89;81.14;96595.11;105438;1253;95231;-72
2023/10/27 12:44:20;;;;;;;18.20;9.10;;;;;;;12.87;81.08;96594.88;105486;1254;108733;-74
2023/10/27 12:46:48;;;;;;;17.30;8.30;;;;;;;12.84;81.06;96595.34;105349;1256;96172;-71
2023/10/27 12:49:16;;;;;;;18.40;8.30;;;;;;;12.79;81.05;96593.34;105662;1256;107431;-72
2023/10/27 12:51:43;;;;;;;15.10;6.60;;;;;;;12.77;81.15;96587.00;105332;1256;96141;-72
2023/10/27 12:54:11;;;;;;;19.00;8.30;;;;;;;12.73;80.99;96586.42;105524;1259;95212;-75
2023/10/27 12:56:39;;;;;;;17.40;8.40;;;;;;;12.69;81.09;96580.88;105181;1256;108728;-75
2023/10/27 12:59:09;;;;;;;16.40;8.00;;;;;;;12.67;81.17;96569.85;105189;1265;96049;-72
2023/10/27 13:01:38;;;;;;;18.30;8.40;;;;;;;12.66;81.22;96558.73;105398;1264;106584;-71
2023/10/27 13:04:06;;;;;;;15.30;7.40;;;;;;;12.66;81.17;96551.96;105523;1256;95245;-74
2023/10/27 13:06:36;;;;;;;14.70;6.60;;;;;;;12.63;81.16;96538.48;105545;1256;95177;-76
2023/10/27 13:09:04;;;;;;;16.80;7.90;;;;;;;12.62;81.15;96530.96;106148;1256;110143;-76
2023/10/27 13:11:33;;;;;;;16.90;7.50;;;;;;;12.61;81.20;96523.64;105770;1251;95368;-76
2023/10/27 13:14:05;;;;;;;;;;;;;;;12.57;81.26;96526.58;105615;1266;107609;-76
2023/10/27 13:16:33;;;;;;;17.70;7.90;;;;;;;12.54;81.32;96536.43;105367;1267;95770;-76
2023/10/27 13:19:01;;;;;;;19.00;9.20;;;;;;;12.54;81.40;96539.30;105656;1256;96058;-72
2023/10/27 13:21:29;;;;;;;16.30;7.80;;;;;;;12.55;81.38;96534.35;105327;1254;108684;-70
2023/10/27 13:23:57;;;;;;;18.30;8.10;;;;;;;12.53;81.36;96520.01;105278;1253;96924;-74
2023/10/27 13:26:25;;;;;;;16.90;7.70;;;;;;;12.50;81.39;96513.94;105343;1254;108339;-72
2023/10/27 13:28:53;;;;;;;18.40;8.70;;;;;;;12.48;81.39;96514.87;105416;1267;95259;-72
2023/10/27 13:31:21;;;;;;;15.90;7.50;;;;;;;12.46;81.38;96521.48;105588;1256;95229;-70
2023/10/27 13:33:49;;;;;;;14.10;7.10;;;;;;;12.47;81.43;96524.85;105451;1256;107794;-71
2023/10/27 13:36:18;;;;;;;16.00;6.60;;;;;;;12.47;81.53;96520.55;105548;1264;96161;-72
2023/10/27 13:38:46;;;;;;;14.00;7.00;;;;;;;12.47;81.52;96515.89;105714;1258;107661;-72
2023/10/27 13:41:18;;;;;;;15.80;7.70;;;;;;;12.48;81.45;96505.88;105466;1256;95250;-71
2023/10/27 13:43:47;;;;;;;19.20;8.60;;;;;;;12.50;81.54;96500.44;105206;1256;96228;-71
2023/10/27 13:46:15;;;;;;;16.80;8.00;;;;;;;12.51;81.61;96492.66;105417;1255;108182;-71
2023/10/27 13:48:47;;;;;;;16.10;7.00;;;;;;;12.50;81.44;96479.45;105456;1254;95425;-72
2023/10/27 13:51:15;;;;;;;16.80;7.80;;;;;;;12.48;81.41;96474.00;105772;1252;107172;-71
2023/10/27 13:53:44;;;;;;;17.30;7.10;;;;;;;12.44;81.46;96472.15;105640;1256;95253;-71
2023/10/27 13:56:12;;;;;;;15.80;7.10;;;;;;;12.44;81.54;96467.64;105543;1256;96095;-71
2023/10/27 13:58:41;;;;;;;13.10;6.00;;;;;;;12.44;81.58;96463.30;105276;1254;108360;-70
2023/10/27 14:01:09;;;;;;;19.70;7.70;;;;;;;12.41;81.52;96458.67;105328;1256;95888;-69
2023/10/27 14:03:39;;;;;;;19.30;9.00;;;;;;;12.37;81.62;96453.99;105458;1255;107661;-70
2023/10/27 14:06:13;;;;;;;17.20;8.40;;;;;;;12.36;81.65;96447.02;105455;1256;95262;-70
2023/10/27 14:08:41;;;;;;;16.40;7.10;;;;;;;12.35;81.72;96439.83;105386;1256;95346;-70
2023/10/27 14:11:09;;;;;;;14.40;6.80;;;;;;;12.32;81.76;96436.66;105281;1256;108535;-75
2023/10/27 14:13:38;;;;;;;13.30;6.10;;;;;;;12.28;81.68;96437.73;105529;1266;95263;-71
2023/10/27 14:16:09;;;;;;;14.00;6.40;;;;;;;12.26;81.99;96433.68;105475;1256;107185;-71
2023/10/27 14:18:38;;;;;;;17.30;6.40;;;;;;;12.21;81.81;96434.83;105429;1256;96600;-72
2023/10/27 14:21:07;;;;;;;13.40;6.00;;;;;;;12.19;81.92;96427.02;105452;1264;96590;-72
2023/10/27 14:23:35;;;;;;;13.50;5.80;;;;;;;12.21;82.05;96422.53;105264;1256;109868;-71
2023/10/27 14:26:03;;;;;;;13.00;5.40;;;;;;;12.20;81.87;96421.20;105259;1256;96586;-71
2023/10/27 14:28:33;;;;;;;15.40;6.10;;;;;;;12.18;81.94;96424.67;105343;1267;107613;-71
2023/10/27 14:31:06;;;;;;;17.10;6.40;;;;;;;12.14;81.94;96417.73;105477;1257;96587;-71
2023/10/27 14:33:34;;;;;;;11.10;4.90;;;;;;;12.12;81.97;96407.09;105391;1254;96658;-71
2023/10/27 14:36:06;;;;;;;15.90;5.70;;;;;;;12.10;81.92;96399.52;105271;1259;109390;-72
2023/10/27 14:38:35;;;;;;;10.70;4.90;;;;;;;12.07;81.96;96389.03;105398;1256;97019;-71
2023/10/27 14:41:04;;;;;;;11.20;5.40;;;;;;;12.06;81.90;96381.15;105470;1252;105981;-71
2023/10/27 14:43:32;;;;;;;10.60;4.50;;;;;;;12.06;82.05;96373.39;105530;1256;96657;-74
2023/10/27 14:46:01;;;;;;;8.00;3.70;;;;;;;12.05;81.93;96370.20;105500;1257;96594;-71
2023/10/27 14:48:30;;;;;;;5.20;3.20;;;;;;;12.02;82.08;96368.16;105346;1256;109414;-69
2023/10/27 14:51:00;;;;;;;7.00;3.10;;;;;;;12.00;82.08;96361.00;105458;1257;97538;-71
2023/10/27 14:53:28;;;;;;;7.40;3.80;;;;;;;11.95;82.18;96358.70;105364;1257;107357;-70
2023/10/27 14:56:01;;;;;;;8.40;3.60;;;;;;;11.90;82.31;96356.10;105302;1259;96618;-70
2023/10/27 14:58:30;;;;;;;5.80;3.00;;;;;;;11.82;82.19;96341.66;105397;1257;97537;-71
2023/10/27 15:01:06;;;;;;;7.60;3.10;;;;;;;11.79;82.24;96338.85;105475;1256;110221;-68
2023/10/27 15:03:37;;;;;;;8.90;4.10;;;;;;;11.75;82.18;96336.39;105450;1257;97912;-72
2023/10/27 15:06:08;;;;;;;7.20;3.60;;;;;;;11.73;82.13;96331.11;105346;1253;105455;-71
2023/10/27 15:08:38;;;;;;;6.00;3.40;;;;;;;11.75;82.15;96333.56;105631;1257;96610;-71
2023/10/27 15:11:10;;;;;;;8.00;3.30;;;;;;;11.73;82.17;96330.27;105572;1254;96651;-71
2023/10/27 15:13:38;;;;;;;6.20;3.10;;;;;;;11.73;82.30;96330.79;105475;1264;109956;-71
2023/10/27 15:16:08;;;;;;;7.10;3.00;;;;;;;11.71;82.32;96330.27;105750;1256;96525;-71
2023/10/27 15:18:38;;;;;;;6.70;2.70;;;;;;;11.70;82.30;96323.88;105443;1262;105893;-71
2023/10/27 15:21:17;;;;;;;7.30;2.70;;;;;;;11.67;82.56;96323.21;105738;1265;96613;-73
2023/10/27 15:23:52;;;;;;;8.60;3.50;;;;;;;11.61;82.38;96316.02;105696;1257;97301;-71
2023/10/27 15:26:23;;;;;;;8.80;3.40;;;;;;;11.58;82.39;96320.30;105440;1256;109344;-72
2023/10/27 15:28:52;;;;;;;6.10;2.90;;;;;;;11.56;82.60;96325.25;105401;1255;97423;-72
2023/10/27 15:31:22;;;;;;;9.10;3.60;;;;;;;11.50;82.52;96324.67;105539;1256;106470;-74
2023/10/27 15:33:51;;;;;;;6.80;3.30;;;;;;;11.44;82.72;96323.71;105218;1257;96585;-84
2023/10/27 15:36:19;;;;;;;5.10;2.90;;;;;;;11.41;82.57;96328.46;105640;1257;96978;-81
2023/10/27 15:38:54;;;;;;;7.50;3.30;;;;;;;11.38;82.69;96324.98;105645;1256;109483;-83
2023/10/27 15:41:30;;;;;;;6.10;3.00;;;;;;;11.39;82.71;96325.61;105454;1257;96667;-81
2023/10/27 15:44:01;;;;;;;7.00;2.80;;;;;;;11.39;82.61;96318.52;105670;1257;108321;-82
2023/10/27 15:46:33;;;;;;;6.30;3.00;;;;;;;11.38;82.65;96315.32;105438;1254;96578;-80
2023/10/27 15:49:03;;;;;;;8.40;3.10;;;;;;;11.37;82.65;96313.80;105462;1256;96582;-82
2023/10/27 15:51:31;;;;;;;8.70;3.50;;;;;;;11.37;82.68;96312.52;105503;1257;109980;-84
2023/10/27 15:53:59;;;;;;;11.60;4.10;;;;;;;11.39;82.76;96307.19;105598;1256;96610;-84
2023/10/27 15:56:29;;;;;;;10.30;4.50;;;;;;;11.41;82.79;96302.34;105381;1267;107554;-83
2023/10/27 15:59:04;;;;;;;14.10;5.30;;;;;;;11.40;82.79;96294.67;105502;1263;96653;-82
2023/10/27 16:01:32;;;;;;;10.10;4.50;;;;;;;11.40;82.68;96293.64;108725;1253;95483;-78
2023/10/27 16:04:00;;;;;;;15.00;5.60;;;;;;;11.39;82.64;96289.66;107310;1256;109775;-83
2023/10/27 16:06:29;;;;;;;12.20;5.20;;;;;;;11.39;82.76;96284.30;105799;1254;96619;-81
2023/10/27 16:08:57;;;;;;;10.90;4.60;;;;;;;11.40;82.87;96276.83;105339;1257;106081;-85
2023/10/27 16:11:25;;;;;;;10.30;4.30;;;;;;;11.39;82.76;96274.48;105307;1264;97810;-84
2023/10/27 16:13:53;;;;;;;11.90;4.70;;;;;;;11.39;82.90;96274.15;105549;1254;96581;-84
2023/10/27 16:16:21;;;;;;;11.00;4.60;;;;;;;11.39;82.90;96273.95;105421;1265;110590;-84
2023/10/27 16:18:49;;;;;;;9.00;4.00;;;;;;;11.41;82.85;96271.42;107238;1253;96597;-84
2023/10/27 16:21:19;;;;;;;14.60;6.10;;;;;;;11.40;82.84;96269.33;106055;1255;108055;-83
2023/10/27 16:23:47;;;;;;;12.50;5.70;;;;;;;11.40;82.89;96261.46;105933;1255;96682;-84
2023/10/27 16:26:15;;;;;;;13.10;5.10;;;;;;;11.42;82.93;96251.13;105538;1257;96530;-77
2023/10/27 16:28:44;;;;;;;9.40;4.70;;;;;;;11.42;82.90;96241.99;105542;1257;110227;-82
2023/10/27 16:31:12;;;;;;;13.80;5.90;;;;;;;11.42;83.18;96238.64;105489;1257;97378;-84
2023/10/27 16:33:41;;;;;;;13.70;6.40;;;;;;;11.42;83.01;96237.23;105237;1254;107674;-86
2023/10/27 16:36:10;;;;;;;17.10;6.90;;;;;;;11.43;83.16;96235.20;105553;1256;96690;-81
2023/10/27 16:38:38;;;;;;;14.80;6.70;;;;;;;11.43;83.23;96236.44;105590;1266;96587;-83
2023/10/27 16:41:06;;;;;;;9.90;4.60;;;;;;;11.44;83.13;96236.86;105540;1258;109989;-84
2023/10/27 16:43:39;;;;;;;11.70;5.90;;;;;;;11.44;83.12;96237.67;105301;1255;96953;-83
2023/10/27 16:46:07;;;;;;;10.70;4.90;;;;;;;11.44;83.21;96240.38;105403;1257;107631;-83
2023/10/27 16:48:39;;;;;;;12.20;4.90;;;;;;;11.45;83.28;96233.38;105407;1255;96498;-86
2023/10/27 16:51:13;;;;;;;11.40;5.20;;;;;;;11.46;83.31;96233.36;105674;1253;96566;-85
2023/10/27 16:53:42;;;;;;;9.40;4.20;;;;;;;11.47;83.30;96235.71;105539;1255;109960;-85
2023/10/27 16:56:12;;;;;;;10.40;4.40;;;;;;;11.50;83.45;96237.38;105586;1254;96593;-85
2023/10/27 16:58:43;;;;;;;14.20;6.20;;;;;;;11.51;83.46;96237.42;105558;1257;106301;-82
2023/10/27 17:01:12;;;;;;;12.30;5.00;;;;;;;11.53;83.48;96242.30;105407;1256;96584;-83
2023/10/27 17:03:43;;;;;;;10.20;5.00;;;;;;;11.55;83.45;96237.11;105394;1262;97278;-84
2023/10/27 17:06:12;;;;;;;8.30;4.30;;;;;;;11.57;83.39;96239.55;105467;1257;109587;-84
2023/10/27 17:08:40;;;;;;;7.50;4.30;;;;;;;11.57;83.57;96239.81;105542;1257;97526;-84
2023/10/27 17:11:08;;;;;;;11.80;5.30;;;;;;;11.59;83.56;96238.71;105465;1266;107055;-82
2023/10/27 17:13:37;;;;;;;11.30;4.70;;;;;;;11.60;83.56;96233.11;105577;1259;96591;-84
2023/10/27 17:16:09;;;;;;;13.30;5.50;;;;;;;11.60;83.51;96236.44;105627;1255;96578;-85
2023/10/27 17:18:39;;;;;;;11.40;4.90;;;;;;;11.61;83.54;96234.95;105616;1254;110262;-84
2023/10/27 17:21:15;;;;;;;15.40;7.00;;;;;;;11.62;83.64;96231.81;105404;1257;96633;-84
2023/10/27 17:26:34;;;;;;;14.10;5.40;;;;;;;11.64;83.73;96241.70;105172;1257;96599;-83
2023/10/27 17:29:03;;;;;;;19.00;9.80;;;;;;;11.65;83.65;96241.92;105428;1260;96511;-86
2023/10/27 17:31:31;;;;;;;23.10;13.40;;;;;;;11.68;83.77;96246.77;105511;1257;109938;-85
2023/10/27 17:33:59;;;;;;;28.30;14.00;;;;;;;11.68;83.67;96252.63;105590;1256;96539;-81
2023/10/27 17:36:45;;;;;;;;;;;;;;;;;;;;;
2023/10/27 17:39:13;;;;;;;25.20;12.10;;;;;;;11.69;83.69;96267.40;105665;1257;96678;-83
2023/10/27 17:41:43;;;;;;;22.20;10.20;;;;;;;11.69;83.60;96274.52;105548;1251;96562;-82
2023/10/27 17:44:14;;;;;;;16.20;7.90;;;;;;;11.69;83.76;96276.05;105475;1251;109927;-81
2023/10/27 17:46:44;;;;;;;15.60;5.70;;;;;;;11.69;83.84;96281.98;105603;1257;97941;-83
2023/10/27 17:49:14;;;;;;;13.10;5.60;;;;;;;11.66;84.31;96289.61;105605;1261;109129;-80
2023/10/27 17:51:42;;;;;;;10.30;4.80;;;;;;;11.62;83.97;96296.21;105602;1266;97613;-81
2023/10/27 17:54:13;;;;;;;12.00;4.50;;;;;;;11.61;83.92;96299.27;105412;1254;96619;-82
2023/10/27 17:56:42;;;;;;;9.70;4.80;;;;;;;11.59;84.14;96306.55;105213;1266;109034;-81
2023/10/27 17:59:19;;;;;;;10.60;4.80;;;;;;;11.56;84.78;96318.30;105462;1257;96686;-74
2023/10/27 18:01:51;;;;;;;10.10;4.40;;;;;;;11.50;84.98;96325.70;105709;1251;107642;-77
2023/10/27 18:04:19;;;;;;;8.50;3.70;;;;;;;11.46;84.72;96331.10;105341;1256;96667;-75
2023/10/27 18:06:47;;;;;;;10.80;4.20;;;;;;;11.45;84.76;96336.05;105462;1254;96633;-77
2023/10/27 18:09:15;;;;;;;10.80;4.20;;;;;;;11.44;85.02;96341.52;105430;1254;109881;-76
2023/10/27 18:11:43;;;;;;;9.30;4.20;;;;;;;11.41;85.44;96351.60;105545;1256;97981;-78
2023/10/27 18:14:12;;;;;;;8.20;4.20;;;;;;;11.40;85.41;96355.36;105326;1271;106616;-77
2023/10/27 18:16:40;;;;;;;7.40;4.20;;;;;;;11.38;85.38;96356.63;105513;1251;97897;-76
2023/10/27 18:19:08;;;;;;;8.20;3.90;;;;;;;11.37;85.83;96365.41;105284;1266;97515;-74
2023/10/27 18:21:36;;;;;;;9.90;4.60;;;;;;;11.36;85.47;96376.75;105369;1255;109413;-75
2023/10/27 18:24:04;;;;;;;6.10;3.50;;;;;;;11.34;85.50;96377.13;105591;1251;96575;-74
2023/10/27 18:26:32;;;;;;;6.40;3.60;;;;;;;11.33;86.15;96386.70;105582;1257;107271;-79
2023/10/27 18:29:00;;;;;;;7.10;3.80;;;;;;;11.31;86.67;96396.28;105492;1257;96617;-75
2023/10/27 18:31:29;;;;;;;8.20;3.70;;;;;;;11.31;86.45;96403.61;105347;1251;96584;-75
2023/10/27 18:33:57;;;;;;;10.00;3.80;;;;;;;11.30;86.37;96417.35;105569;1254;110436;-75
2023/10/27 18:36:26;;;;;;;10.20;4.10;;;;;;;11.30;86.74;96425.46;105711;1257;96587;-75
2023/10/27 18:38:53;;;;;;;7.40;3.70;;;;;;;11.30;86.33;96429.36;105353;1258;107355;-77
2023/10/27 18:41:22;;;;;;;7.40;3.90;;;;;;;11.30;86.63;96436.80;105622;1256;96643;-75
2023/10/27 18:43:51;;;;;;;8.00;3.90;;;;;;;11.31;86.35;96441.16;105350;1257;97407;-76
2023/10/27 18:46:21;;;;;;;7.20;3.70;;;;;;;11.32;86.31;96445.67;105573;1254;109815;-72
2023/10/27 18:48:49;;;;;;;8.90;3.80;;;;;;;11.33;86.99;96457.04;105283;1269;96655;-75
2023/10/27 18:51:17;;;;;;;9.10;4.10;;;;;;;11.34;86.54;96463.35;105508;1262;107553;-75
2023/10/27 18:53:46;;;;;;;7.60;4.30;;;;;;;11.35;86.85;96475.13;105596;1257;97798;-75
2023/10/27 18:56:15;;;;;;;7.90;3.50;;;;;;;11.35;86.68;96478.52;105889;1257;96673;-76
2023/10/27 18:58:45;;;;;;;7.70;3.80;;;;;;;11.36;86.42;96489.95;106363;1251;110619;-76
2023/10/27 19:01:14;;;;;;;7.50;3.90;;;;;;;11.36;87.40;96495.98;105563;1256;96584;-78
2023/10/27 19:03:46;;;;;;;10.00;4.00;;;;;;;11.36;87.32;96498.67;105583;1254;107639;-74
2023/10/27 19:06:16;;;;;;;9.70;4.50;;;;;;;11.36;87.36;96509.44;105479;1256;96668;-74
2023/10/27 19:08:45;;;;;;;9.70;4.50;;;;;;;11.36;86.98;96513.72;108736;1251;94253;-75
2023/10/27 19:11:14;;;;;;;10.10;4.40;;;;;;;11.37;86.66;96523.67;108517;1251;110142;-75
2023/10/27 19:13:42;;;;;;;10.10;4.10;;;;;;;11.38;86.99;96531.77;105950;1256;96504;-75
2023/10/27 19:16:13;;;;;;;8.20;4.30;;;;;;;11.37;87.19;96540.38;105792;1257;107636;-74
2023/10/27 19:18:44;;;;;;;7.90;3.90;;;;;;;11.36;86.98;96549.00;105527;1255;96629;-75
2023/10/27 19:21:14;;;;;;;11.00;4.50;;;;;;;11.35;86.82;96560.52;105558;1256;96629;-76
2023/10/27 19:23:44;;;;;;;10.10;4.80;;;;;;;11.32;86.80;96569.89;105518;1257;109980;-76
2023/10/27 19:26:13;;;;;;;7.50;3.60;;;;;;;11.29;86.64;96578.23;105458;1264;96547;-75
2023/10/27 19:28:43;;;;;;;10.10;4.40;;;;;;;11.26;86.57;96583.13;105484;1251;107744;-75
2023/10/27 19:31:13;;;;;;;9.10;4.30;;;;;;;11.21;86.76;96588.83;105619;1264;96609;-75
2023/10/27 19:33:43;;;;;;;8.00;4.20;;;;;;;11.17;86.42;96597.86;105423;1253;97177;-76
2023/10/27 19:36:13;;;;;;;8.70;4.20;;;;;;;11.11;86.32;96601.13;105578;1263;109912;-77
2023/10/27 19:38:42;;;;;;;8.90;4.30;;;;;;;11.08;86.18;96613.79;105645;1256;96505;-76
2023/10/27 19:41:14;;;;;;;6.20;3.60;;;;;;;11.04;86.84;96625.97;105269;1260;107640;-74
2023/10/27 19:43:43;;;;;;;6.60;3.80;;;;;;;10.98;86.71;96638.77;105428;1251;97915;-74
2023/10/27 19:46:12;;;;;;;10.10;4.20;;;;;;;10.94;86.59;96641.91;105573;1251;97093;-75
2023/10/27 19:48:40;;;;;;;7.00;4.20;;;;;;;10.92;86.49;96649.73;105537;1264;109894;-75
2023/10/27 19:51:12;;;;;;;9.70;4.30;;;;;;;10.90;86.47;96654.43;105587;1251;96585;-76
2023/10/27 19:53:41;;;;;;;8.40;3.90;;;;;;;10.88;86.66;96659.96;105507;1258;107165;-76
2023/10/27 19:56:13;;;;;;;6.70;3.90;;;;;;;10.85;86.68;96664.89;105489;1256;96700;-76
2023/10/27 19:58:42;;;;;;;7.20;4.00;;;;;;;10.83;86.29;96679.16;105611;1251;96606;-76
2023/10/27 20:01:12;;;;;;;10.60;4.20;;;;;;;10.81;86.62;96682.55;105435;1258;109511;-74
2023/10/27 20:03:40;;;;;;;6.10;3.80;;;;;;;10.79;86.27;96688.95;105725;1252;96609;-75
2023/10/27 20:06:08;;;;;;;7.80;3.80;;;;;;;10.77;86.72;96701.06;105674;1256;107252;-75
2023/10/27 20:08:38;;;;;;;8.10;4.10;;;;;;;10.74;86.67;96710.07;105699;1257;97979;-74
2023/10/27 20:11:17;;;;;;;8.20;4.30;;;;;;;10.71;86.65;96720.02;105680;1251;97324;-74
2023/10/27 20:13:45;;;;;;;9.90;4.80;;;;;;;10.68;86.63;96728.42;105317;1251;109909;-74
2023/10/27 20:16:20;;;;;;;10.30;4.90;;;;;;;10.66;86.70;96739.16;105622;1256;96588;-75
2023/10/27 20:18:51;;;;;;;9.90;5.00;;;;;;;10.64;86.53;96748.98;105456;1266;107678;-75
2023/10/27 20:21:21;;;;;;;10.90;5.10;;;;;;;10.63;85.93;96752.06;105351;1256;96632;-76
2023/10/27 20:23:51;;;;;;;9.60;5.00;;;;;;;10.62;86.16;96764.56;105532;1256;96575;-76
2023/10/27 20:26:19;;;;;;;9.60;4.90;;;;;;;10.61;86.02;96774.98;105758;1251;109987;-74
2023/10/27 20:28:48;;;;;;;12.40;5.30;;;;;;;10.59;86.29;96780.33;105423;1253;96511;-77
2023/10/27 20:31:17;;;;;;;10.00;5.20;;;;;;;10.56;86.20;96789.70;105464;1268;107837;-75
2023/10/27 20:33:47;;;;;;;8.50;4.80;;;;;;;10.54;86.17;96793.65;105648;1256;96582;-73
2023/10/27 20:36:17;;;;;;;10.90;5.60;;;;;;;10.51;86.21;96798.14;105479;1256;96578;-76
2023/10/27 20:38:45;;;;;;;11.60;6.10;;;;;;;10.51;85.84;96810.93;105613;1253;109720;-76
2023/10/27 20:41:13;;;;;;;12.50;5.70;;;;;;;10.52;85.79;96821.27;105433;1256;97513;-75
2023/10/27 20:43:41;;;;;;;10.30;5.60;;;;;;;10.51;85.94;96828.80;105595;1256;107111;-74
2023/10/27 20:46:09;;;;;;;12.20;5.30;;;;;;;10.50;85.97;96835.89;105432;1256;96974;-75
2023/10/27 20:48:37;;;;;;;12.10;6.00;;;;;;;10.48;85.97;96846.17;105401;1251;96596;-75
2023/10/27 20:51:05;;;;;;;10.60;5.50;;;;;;;10.46;85.91;96857.93;105618;1251;109948;-75
2023/10/27 20:53:33;;;;;;;10.00;5.20;;;;;;;10.43;85.91;96858.70;105391;1251;96533;-77
2023/10/27 20:56:02;;;;;;;17.20;7.50;;;;;;;10.42;86.14;96861.69;105704;1251;107622;-75
2023/10/27 20:58:30;;;;;;;20.20;7.80;;;;;;;10.40;86.10;96869.18;105546;1254;97423;-75
2023/10/27 21:01:11;;;;;;;14.30;6.80;;;;;;;10.38;85.81;96871.66;105683;1251;96593;-75
2023/10/27 21:03:39;;;;;;;13.70;6.80;;;;;;;10.36;85.83;96879.29;105375;1251;109560;-74
2023/10/27 21:06:07;;;;;;;14.00;6.00;;;;;;;10.35;85.99;96884.02;105687;1252;96593;-75
2023/10/27 21:08:36;;;;;;;14.40;7.00;;;;;;;10.32;85.85;96879.36;105506;1264;107252;-76
2023/10/27 21:11:05;;;;;;;14.40;7.50;;;;;;;10.30;85.59;96881.15;105532;1256;96604;-75
2023/10/27 21:13:33;;;;;;;14.30;7.50;;;;;;;10.30;85.52;96881.05;105665;1251;96576;-76
2023/10/27 21:16:11;;;;;;;16.70;7.80;;;;;;;10.30;85.63;96886.36;105369;1267;108361;-75
2023/10/27 21:18:39;;;;;;;14.20;7.50;;;;;;;10.28;85.58;96894.14;105410;1251;97979;-75
2023/10/27 21:21:07;;;;;;;16.70;7.90;;;;;;;10.27;85.66;96902.43;105444;1255;107605;-76
2023/10/27 21:23:36;;;;;;;17.60;8.70;;;;;;;10.26;85.55;96906.42;105448;1256;96591;-76
2023/10/27 21:26:04;;;;;;;19.70;9.40;;;;;;;10.24;85.78;96914.18;105531;1257;97992;-75
2023/10/27 21:28:32;;;;;;;21.20;10.90;;;;;;;10.23;85.61;96922.68;105598;1255;109405;-75
2023/10/27 21:31:00;;;;;;;18.90;10.10;;;;;;;10.22;85.70;96930.68;105619;1253;96569;-77
2023/10/27 21:33:28;;;;;;;20.10;10.20;;;;;;;10.22;85.74;96935.00;105536;1260;107597;-75
2023/10/27 21:35:57;;;;;;;20.90;9.40;;;;;;;10.22;85.55;96941.38;105391;1251;96646;-76